createdAt,value
2022-10-18T00:02:23.882Z,25.17
2022-10-18T00:07:30.824Z,25.70
2022-10-18T00:12:39.361Z,23.63
2022-10-18T00:17:47.615Z,22.60
2022-10-18T00:23:12.127Z,22.97
2022-10-18T00:28:17.385Z,24.30
2022-10-18T00:33:24.911Z,25.00
2022-10-18T00:38:35.389Z,24.23
2022-10-18T00:49:50.883Z,22.13
2022-10-18T00:55:01.992Z,22.60
2022-10-18T01:00:26.483Z,22.00
2022-10-18T01:05:33.407Z,22.00
2022-10-18T01:11:21.942Z,20.63
2022-10-18T01:17:05.084Z,23.80
2022-10-18T01:22:31.956Z,23.63
2022-10-18T01:27:58.022Z,30.90
2022-10-18T01:33:15.026Z,34.90
2022-10-18T01:38:23.856Z,34.43
2022-10-18T01:43:50.632Z,34.10
2022-10-18T01:48:57.852Z,29.30
2022-10-18T01:54:03.499Z,27.23
2022-10-18T01:59:32.337Z,26.80
2022-10-18T02:05:04.843Z,26.13
2022-10-18T02:15:21.497Z,22.80
2022-10-18T02:20:49.147Z,21.53
2022-10-18T02:26:19.179Z,23.83
2022-10-18T02:31:31.157Z,21.67
2022-10-18T02:36:54.960Z,21.60
2022-10-18T02:42:06.374Z,20.63
2022-10-18T02:47:13.330Z,22.23
2022-10-18T02:52:20.313Z,22.47
2022-10-18T02:57:25.652Z,24.47
2022-10-18T03:02:31.010Z,25.73
2022-10-18T03:07:36.266Z,29.77
2022-10-18T03:12:41.498Z,30.03
2022-10-18T03:17:46.693Z,28.43
2022-10-18T03:22:53.104Z,27.27
2022-10-18T03:27:59.810Z,29.87
2022-10-18T03:33:05.947Z,26.43
2022-10-18T03:38:11.179Z,26.47
2022-10-18T03:43:16.412Z,25.67
2022-10-18T03:48:27.450Z,23.73
2022-10-18T03:53:32.699Z,25.30
2022-10-18T03:58:57.319Z,24.63
2022-10-18T04:04:04.310Z,23.57
2022-10-18T04:09:12.350Z,22.90
2022-10-18T04:14:21.893Z,23.13
2022-10-18T04:19:27.852Z,22.93
2022-10-18T04:24:33.136Z,24.97
2022-10-18T04:29:38.337Z,27.60
2022-10-18T04:35:04.209Z,30.27
2022-10-18T04:40:13.854Z,36.87
2022-10-18T04:45:25.933Z,36.63
2022-10-18T04:50:31.268Z,33.70
2022-10-18T04:55:40.657Z,33.07
2022-10-18T05:00:47.935Z,34.57
2022-10-18T05:06:08.282Z,34.37
2022-10-18T05:11:01.071Z,30.33
2022-10-18T05:16:09.178Z,30.37
2022-10-18T05:21:14.411Z,33.43
2022-10-18T05:26:19.584Z,32.20
2022-10-18T05:31:24.849Z,33.13
2022-10-18T05:36:30.213Z,31.07
2022-10-18T05:41:35.865Z,30.70
2022-10-18T05:46:42.061Z,30.67
2022-10-18T05:51:47.752Z,30.13
2022-10-18T05:56:55.106Z,31.13
2022-10-18T06:02:03.183Z,41.03
2022-10-18T06:07:13.715Z,35.37
2022-10-18T06:12:27.113Z,41.10
2022-10-18T06:17:48.629Z,35.90
2022-10-18T06:23:13.620Z,33.67
2022-10-18T06:28:21.411Z,30.33
2022-10-18T06:33:27.144Z,31.50
2022-10-18T06:38:32.594Z,31.03
2022-10-18T06:43:40.418Z,47.43
2022-10-18T06:48:47.214Z,40.47
2022-10-18T06:54:13.006Z,34.93
2022-10-18T06:59:31.302Z,38.30
2022-10-18T07:04:37.362Z,37.63
2022-10-18T07:09:42.803Z,36.40
2022-10-18T07:15:09.516Z,43.50
2022-10-18T07:20:20.051Z,37.87
2022-10-18T07:25:44.244Z,36.73
2022-10-18T07:30:49.549Z,35.57
2022-10-18T07:36:16.705Z,35.83
2022-10-18T07:41:25.862Z,36.03
2022-10-18T07:46:50.339Z,37.80
2022-10-18T07:52:05.490Z,44.73
2022-10-18T07:57:14.358Z,31.27
2022-10-18T08:02:26.588Z,28.57
2022-10-18T08:07:35.971Z,27.43
2022-10-18T08:12:41.876Z,28.27
2022-10-18T08:17:49.099Z,25.83
2022-10-18T08:23:13.445Z,25.30
2022-10-18T08:28:18.659Z,24.63
2022-10-18T08:33:23.951Z,26.00
2022-10-18T08:38:36.679Z,25.70
2022-10-18T08:44:07.205Z,30.97
2022-10-18T08:49:13.487Z,26.23
2022-10-18T08:54:31.258Z,28.87
2022-10-18T08:59:44.353Z,27.70
2022-10-18T09:05:14.590Z,28.50
2022-10-18T09:10:28.437Z,26.77
2022-10-18T09:15:48.353Z,29.53
2022-10-18T09:20:56.525Z,25.07
2022-10-18T09:26:05.754Z,25.17
2022-10-18T09:31:45.805Z,25.70
2022-10-18T09:36:53.438Z,32.23
2022-10-18T09:42:05.367Z,25.27
2022-10-18T09:47:25.571Z,27.13
2022-10-18T09:52:38.776Z,23.30
2022-10-18T09:57:49.789Z,21.27
2022-10-18T10:02:56.058Z,20.90
2022-10-18T10:08:04.123Z,22.67
2022-10-18T10:13:22.551Z,25.03
2022-10-18T10:18:30.729Z,21.23
2022-10-18T10:23:42.090Z,22.23
2022-10-18T10:29:17.304Z,23.53
2022-10-18T10:34:22.927Z,22.00
2022-10-18T10:39:28.502Z,19.43
2022-10-18T10:44:39.388Z,19.37
2022-10-18T10:49:47.121Z,19.23
2022-10-18T10:55:16.686Z,19.53
2022-10-18T11:00:11.108Z,20.03
2022-10-18T11:05:25.691Z,19.30
2022-10-18T11:10:34.492Z,20.57
2022-10-18T11:15:45.339Z,19.80
2022-10-18T11:21:08.295Z,20.97
2022-10-18T11:26:31.141Z,17.60
2022-10-18T11:32:02.294Z,12.40
2022-10-18T11:37:28.218Z,9.60
2022-10-18T11:42:40.375Z,7.77
2022-10-18T11:48:01.760Z,9.40
2022-10-18T11:53:23.963Z,9.83
2022-10-18T11:58:40.851Z,10.37
2022-10-18T12:03:59.679Z,10.37
2022-10-18T12:09:07.870Z,10.63
2022-10-18T12:14:28.142Z,10.43
2022-10-18T12:19:37.860Z,10.67
2022-10-18T12:24:48.023Z,10.37
2022-10-18T12:30:14.567Z,12.10
2022-10-18T12:35:30.319Z,10.07
2022-10-18T12:40:44.899Z,18.37
2022-10-18T12:45:58.143Z,16.80
2022-10-18T12:51:15.447Z,22.37
2022-10-18T12:56:50.739Z,38.43
2022-10-18T13:02:02.983Z,49.67
2022-10-18T13:07:13.738Z,19.60
2022-10-18T13:12:22.163Z,19.23
2022-10-18T13:23:33.924Z,12.97
2022-10-18T13:28:57.865Z,41.23
2022-10-18T13:34:32.860Z,24.40
2022-10-18T13:39:55.241Z,97.87
2022-10-18T13:45:32.741Z,20.97
2022-10-18T13:50:41.001Z,17.33
2022-10-18T13:55:56.220Z,33.13
2022-10-18T14:13:05.017Z,16.43
2022-10-18T14:18:22.327Z,13.60
2022-10-18T15:04:48.528Z,30.50
2022-10-18T15:10:29.980Z,25.83
2022-10-18T15:27:30.513Z,12.90
2022-10-18T15:32:41.016Z,11.50
2022-10-18T15:37:54.694Z,10.90
2022-10-18T15:43:10.367Z,13.60
2022-10-18T15:48:47.016Z,18.10
2022-10-18T15:53:55.684Z,20.17
2022-10-18T16:10:49.756Z,17.87
2022-10-18T16:15:59.643Z,16.83
2022-10-18T16:21:09.711Z,17.30
2022-10-18T16:26:20.909Z,16.83
2022-10-18T16:31:33.352Z,16.27
2022-10-18T16:37:04.958Z,15.43
2022-10-18T16:42:10.488Z,16.53
2022-10-18T16:47:36.202Z,16.70
2022-10-18T16:52:45.584Z,15.03
2022-10-18T16:58:10.444Z,19.23
2022-10-18T17:03:18.108Z,17.10
2022-10-18T17:08:43.185Z,16.57
2022-10-18T17:13:56.275Z,16.57
2022-10-18T17:19:21.788Z,24.57
2022-10-18T17:24:43.474Z,18.90
2022-10-18T17:29:52.454Z,20.13
2022-10-18T17:35:01.978Z,21.90
2022-10-18T17:40:20.921Z,22.67
2022-10-18T17:45:30.276Z,26.80
2022-10-18T17:50:55.873Z,21.10
2022-10-18T17:56:09.120Z,22.70
2022-10-18T18:01:19.086Z,23.97
2022-10-18T18:06:36.983Z,25.90
2022-10-18T18:11:56.043Z,22.33
2022-10-18T18:17:14.257Z,20.43
2022-10-18T18:22:32.327Z,20.47
2022-10-18T18:27:58.487Z,22.87
2022-10-18T18:33:08.768Z,33.83
2022-10-18T18:38:14.041Z,26.00
2022-10-18T18:43:23.020Z,25.63
2022-10-18T18:48:29.642Z,21.40
2022-10-18T18:53:35.210Z,22.10
2022-10-18T18:58:50.636Z,21.93
2022-10-18T19:04:02.798Z,20.00
2022-10-18T19:09:14.913Z,19.40
2022-10-18T19:14:25.251Z,17.63
2022-10-18T19:19:34.379Z,16.90
2022-10-18T19:24:40.275Z,17.30
2022-10-18T19:29:48.917Z,17.50
2022-10-18T19:34:54.307Z,15.80
2022-10-18T19:40:01.613Z,21.30
2022-10-18T19:45:09.508Z,9.63
2022-10-18T19:50:17.605Z,11.00
2022-10-18T19:55:25.256Z,10.43
2022-10-18T20:00:31.487Z,12.10
2022-10-18T20:05:36.759Z,11.47
2022-10-18T20:10:41.882Z,10.83
2022-10-18T20:15:51.435Z,11.23
2022-10-18T20:20:57.724Z,11.77
2022-10-18T20:26:06.160Z,11.27
2022-10-18T20:31:19.386Z,10.87
2022-10-18T20:36:27.015Z,11.57
2022-10-18T20:41:34.867Z,10.10
2022-10-18T20:46:42.462Z,9.07
2022-10-18T20:51:48.047Z,9.90
2022-10-18T20:56:53.201Z,8.17
2022-10-18T21:01:58.474Z,8.73
2022-10-18T21:07:06.453Z,9.80
2022-10-18T21:12:14.453Z,7.70
2022-10-18T21:17:21.185Z,10.57
2022-10-18T21:22:26.515Z,10.93
2022-10-18T21:27:31.829Z,10.83
2022-10-18T21:32:38.085Z,12.57
2022-10-18T21:37:43.262Z,12.03
2022-10-18T21:42:50.317Z,10.73
2022-10-18T21:47:57.031Z,8.00
2022-10-18T21:53:02.301Z,7.27
2022-10-18T21:58:09.204Z,7.13
2022-10-18T22:03:24.894Z,8.23
2022-10-18T22:08:33.725Z,9.17
2022-10-18T22:13:43.102Z,8.57
2022-10-18T22:18:50.005Z,7.47
2022-10-18T22:24:14.765Z,7.67
2022-10-18T22:35:24.041Z,8.60
2022-10-18T22:40:39.424Z,8.00
2022-10-18T22:45:49.034Z,7.63
2022-10-18T22:50:55.607Z,9.17
2022-10-18T22:56:04.487Z,10.03
2022-10-18T23:01:15.168Z,9.37
2022-10-18T23:06:31.631Z,8.00
2022-10-18T23:11:38.151Z,8.57
2022-10-18T23:16:44.874Z,10.17
2022-10-18T23:21:50.123Z,7.87
2022-10-18T23:26:57.488Z,6.87
2022-10-18T23:32:03.362Z,7.57
2022-10-18T23:37:10.195Z,9.23
2022-10-18T23:42:15.345Z,7.43
2022-10-18T23:47:22.223Z,6.70
2022-10-18T23:52:27.476Z,4.63
2022-10-18T23:57:32.829Z,6.00
